createdAt,value
2023-02-11T00:01:21.024Z,7.43
2023-02-11T00:03:47.996Z,8.27
2023-02-11T00:06:14.913Z,8.68
2023-02-11T00:08:41.728Z,10.05
2023-02-11T00:11:15.921Z,7.78
2023-02-11T00:13:44.332Z,8.48
2023-02-11T00:16:14.093Z,9.10
2023-02-11T00:18:41.047Z,10.55
2023-02-11T00:21:13.548Z,7.55
2023-02-11T00:23:40.685Z,11.35
2023-02-11T00:26:36.893Z,8.95
2023-02-11T00:29:05.488Z,9.10
2023-02-11T00:31:32.735Z,8.68
2023-02-11T00:33:59.690Z,9.48
2023-02-11T00:36:28.644Z,10.15
2023-02-11T00:38:57.127Z,9.32
2023-02-11T00:41:24.581Z,8.60
2023-02-11T00:43:51.722Z,9.40
2023-02-11T00:46:19.566Z,11.63
2023-02-11T00:48:49.719Z,12.13
2023-02-11T00:51:16.482Z,11.63
2023-02-11T00:53:43.463Z,12.07
2023-02-11T00:56:10.423Z,11.73
2023-02-11T00:58:37.748Z,12.70
2023-02-11T01:01:05.212Z,9.70
2023-02-11T01:03:32.221Z,10.48
2023-02-11T01:05:59.022Z,9.32
2023-02-11T01:08:25.918Z,10.05
2023-02-11T01:11:00.655Z,10.07
2023-02-11T01:13:29.098Z,12.38
2023-02-11T01:15:56.455Z,11.70
2023-02-11T01:18:24.643Z,11.75
2023-02-11T01:20:52.853Z,10.60
2023-02-11T01:23:19.841Z,11.40
2023-02-11T01:25:46.857Z,14.10
2023-02-11T01:28:24.971Z,13.32
2023-02-11T01:30:53.317Z,13.50
2023-02-11T01:33:21.009Z,12.73
2023-02-11T01:35:48.026Z,11.10
2023-02-11T01:38:24.705Z,11.52
2023-02-11T01:41:02.331Z,9.98
2023-02-11T01:43:50.979Z,9.88
2023-02-11T01:46:34.844Z,9.50
2023-02-11T01:49:09.325Z,10.63
2023-02-11T01:51:41.684Z,11.23
2023-02-11T01:54:30.107Z,10.60
2023-02-11T01:57:18.474Z,10.43
2023-02-11T01:59:54.442Z,9.23
2023-02-11T02:02:27.117Z,9.20
2023-02-11T02:04:59.861Z,9.85
2023-02-11T02:07:35.950Z,10.77
2023-02-11T02:10:11.333Z,11.07
2023-02-11T02:12:38.254Z,10.60
2023-02-11T02:15:27.940Z,9.45
2023-02-11T02:18:15.851Z,9.80
2023-02-11T02:21:13.626Z,11.18
2023-02-11T02:23:50.700Z,11.55
2023-02-11T02:26:32.449Z,11.23
2023-02-11T02:29:24.831Z,10.85
2023-02-11T02:32:24.309Z,10.95
2023-02-11T02:34:58.342Z,11.15
2023-02-11T02:37:36.410Z,10.73
2023-02-11T02:40:09.676Z,10.85
2023-02-11T02:42:37.994Z,12.02
2023-02-11T02:45:06.972Z,10.48
2023-02-11T02:47:33.779Z,12.65
2023-02-11T02:50:01.097Z,11.30
2023-02-11T02:53:00.854Z,11.65
2023-02-11T02:55:48.757Z,11.35
2023-02-11T02:58:33.741Z,11.38
2023-02-11T03:01:22.464Z,11.82
2023-02-11T03:04:20.937Z,10.80
2023-02-11T03:07:10.198Z,15.52
2023-02-11T03:09:47.674Z,16.70
2023-02-11T03:12:15.722Z,15.10
2023-02-11T03:14:43.437Z,15.73
2023-02-11T03:17:10.954Z,14.82
2023-02-11T03:19:44.223Z,16.95
2023-02-11T03:22:40.716Z,13.30
2023-02-11T03:25:08.697Z,12.70
2023-02-11T03:27:51.154Z,12.27
2023-02-11T03:30:33.148Z,15.18
2023-02-11T03:33:15.494Z,13.35
2023-02-11T03:35:50.800Z,14.30
2023-02-11T03:38:32.971Z,13.90
2023-02-11T03:41:02.405Z,15.45
2023-02-11T03:43:34.493Z,15.93
2023-02-11T03:46:05.709Z,16.55
2023-02-11T03:48:37.880Z,17.85
2023-02-11T03:51:09.449Z,17.52
2023-02-11T03:53:38.947Z,18.43
2023-02-11T03:56:09.363Z,15.52
2023-02-11T03:58:36.151Z,12.52
2023-02-11T04:01:05.209Z,18.10
2023-02-11T04:03:33.142Z,18.65
2023-02-11T04:05:59.960Z,17.02
2023-02-11T04:08:26.754Z,18.65
2023-02-11T04:10:56.698Z,16.77
2023-02-11T04:13:23.482Z,17.33
2023-02-11T04:15:51.004Z,18.90
2023-02-11T04:18:18.057Z,16.48
2023-02-11T04:20:44.846Z,16.73
2023-02-11T04:23:11.597Z,14.82
2023-02-11T04:25:38.394Z,15.57
2023-02-11T04:28:05.286Z,18.42
2023-02-11T04:30:32.125Z,18.98
2023-02-11T04:32:59.198Z,21.98
2023-02-11T04:35:26.059Z,20.65
2023-02-11T04:37:52.871Z,20.23
2023-02-11T04:40:19.749Z,48.33
2023-02-11T04:42:46.565Z,29.33
2023-02-11T04:45:15.878Z,86.28
2023-02-11T04:47:42.698Z,38.00
2023-02-11T04:50:09.647Z,58.05
2023-02-11T04:52:36.421Z,33.38
2023-02-11T04:55:03.337Z,23.02
2023-02-11T04:57:30.164Z,22.80
2023-02-11T05:00:00.022Z,18.25
2023-02-11T05:02:26.940Z,19.27
2023-02-11T05:04:53.697Z,18.65
2023-02-11T05:07:22.902Z,17.45
2023-02-11T05:09:49.669Z,16.40
2023-02-11T05:12:16.581Z,18.13
2023-02-11T05:14:43.367Z,26.00
2023-02-11T05:17:11.282Z,14.38
2023-02-11T05:19:38.150Z,15.85
2023-02-11T05:22:05.068Z,14.90
2023-02-11T05:24:32.435Z,15.90
2023-02-11T05:26:59.718Z,14.52
2023-02-11T05:29:26.527Z,14.68
2023-02-11T05:31:53.562Z,15.68
2023-02-11T05:34:20.435Z,14.68
2023-02-11T05:36:47.239Z,16.02
2023-02-11T05:39:14.054Z,15.77
2023-02-11T05:41:40.862Z,13.95
2023-02-11T05:44:07.649Z,15.45
2023-02-11T05:46:34.483Z,16.85
2023-02-11T05:49:01.379Z,15.95
2023-02-11T05:51:28.179Z,17.75
2023-02-11T05:53:57.403Z,14.85
2023-02-11T05:56:24.230Z,15.63
2023-02-11T05:58:51.115Z,15.18
2023-02-11T06:01:17.860Z,16.42
2023-02-11T06:03:44.728Z,15.55
2023-02-11T06:06:12.809Z,15.00
2023-02-11T06:08:41.356Z,16.50
2023-02-11T06:11:08.154Z,16.27
2023-02-11T06:13:36.125Z,15.02
2023-02-11T06:16:03.537Z,15.82
2023-02-11T06:18:30.616Z,14.02
2023-02-11T06:20:57.425Z,16.00
2023-02-11T06:23:24.312Z,15.50
2023-02-11T06:25:52.585Z,15.95
2023-02-11T06:28:19.922Z,18.25
2023-02-11T06:30:46.751Z,20.88
2023-02-11T06:33:16.477Z,18.70
2023-02-11T06:35:43.316Z,20.98
2023-02-11T06:38:10.245Z,21.00
2023-02-11T06:40:37.130Z,24.50
2023-02-11T06:43:03.938Z,23.42
2023-02-11T06:45:30.736Z,20.35
2023-02-11T06:47:59.166Z,21.02
2023-02-11T06:50:25.937Z,21.05
2023-02-11T06:52:52.748Z,22.55
2023-02-11T06:55:19.617Z,18.15
2023-02-11T06:57:46.426Z,28.50
2023-02-11T07:00:13.934Z,30.98
2023-02-11T07:02:40.697Z,57.67
2023-02-11T07:05:11.147Z,45.92
2023-02-11T07:07:38.007Z,36.70
2023-02-11T07:10:05.838Z,32.83
2023-02-11T07:12:32.745Z,27.73
2023-02-11T07:14:59.552Z,21.60
2023-02-11T07:17:26.432Z,17.50
2023-02-11T07:19:53.681Z,14.40
2023-02-11T07:22:20.543Z,14.27
2023-02-11T07:24:47.337Z,13.75
2023-02-11T07:27:14.169Z,13.60
2023-02-11T07:29:42.610Z,12.82
2023-02-11T07:32:09.568Z,12.35
2023-02-11T07:34:36.477Z,12.98
2023-02-11T07:37:06.078Z,13.35
2023-02-11T07:39:32.913Z,13.18
2023-02-11T07:42:01.515Z,16.35
2023-02-11T07:44:28.451Z,15.50
2023-02-11T07:46:55.281Z,25.42
2023-02-11T07:49:22.204Z,16.02
2023-02-11T07:51:51.045Z,15.98
2023-02-11T07:54:18.233Z,15.95
2023-02-11T07:56:45.036Z,16.38
2023-02-11T07:59:12.491Z,17.75
2023-02-11T08:01:39.959Z,16.88
2023-02-11T08:04:06.827Z,17.63
2023-02-11T08:06:34.884Z,16.70
2023-02-11T08:09:07.242Z,17.48
2023-02-11T08:11:34.084Z,19.00
2023-02-11T08:14:01.169Z,16.77
2023-02-11T08:16:33.568Z,16.50
2023-02-11T08:19:03.130Z,20.05
2023-02-11T08:21:30.022Z,19.30
2023-02-11T08:23:57.242Z,18.67
2023-02-11T08:26:28.700Z,18.25
2023-02-11T08:28:56.776Z,20.77
2023-02-11T08:31:26.883Z,20.25
2023-02-11T08:33:54.882Z,23.55
2023-02-11T08:36:25.472Z,27.95
2023-02-11T08:39:05.645Z,31.85
2023-02-11T08:41:39.253Z,32.15
2023-02-11T08:44:06.261Z,32.47
2023-02-11T08:46:33.286Z,35.33
2023-02-11T08:49:00.181Z,34.15
2023-02-11T08:51:30.364Z,30.92
2023-02-11T08:53:57.738Z,33.17
2023-02-11T08:56:24.953Z,29.38
2023-02-11T08:58:52.537Z,29.55
2023-02-11T09:01:23.367Z,26.15
2023-02-11T09:03:50.748Z,27.42
2023-02-11T09:06:18.748Z,25.77
2023-02-11T09:08:49.416Z,26.92
2023-02-11T09:11:18.199Z,28.48
2023-02-11T09:13:45.286Z,29.63
2023-02-11T09:16:22.157Z,26.27
2023-02-11T09:18:49.782Z,27.63
2023-02-11T09:21:18.050Z,25.55
2023-02-11T09:23:47.627Z,29.17
2023-02-11T09:26:21.789Z,28.65
2023-02-11T09:28:50.299Z,30.27
2023-02-11T09:31:20.612Z,31.17
2023-02-11T09:33:51.192Z,29.75
2023-02-11T09:36:20.748Z,30.33
2023-02-11T09:38:47.877Z,29.80
2023-02-11T09:41:23.513Z,31.98
2023-02-11T09:43:58.524Z,31.17
2023-02-11T09:46:27.475Z,34.03
2023-02-11T09:48:56.282Z,35.45
2023-02-11T09:51:47.382Z,36.65
2023-02-11T09:54:37.423Z,38.60
2023-02-11T09:57:19.471Z,35.90
2023-02-11T09:59:53.509Z,38.92
2023-02-11T10:02:24.614Z,37.45
2023-02-11T10:05:00.037Z,39.78
2023-02-11T10:07:47.193Z,41.50
2023-02-11T10:10:25.935Z,39.35
2023-02-11T10:13:20.061Z,39.28
2023-02-11T10:16:14.766Z,39.40
2023-02-11T10:19:13.261Z,34.47
2023-02-11T10:22:10.856Z,35.15
2023-02-11T10:24:38.919Z,33.03
2023-02-11T10:27:24.469Z,33.53
2023-02-11T10:30:06.852Z,32.00
2023-02-11T10:32:57.246Z,33.22
2023-02-11T10:35:24.561Z,33.60
2023-02-11T10:37:51.456Z,33.40
2023-02-11T10:40:21.914Z,32.25
2023-02-11T10:42:57.625Z,29.55
2023-02-11T10:45:33.368Z,32.25
2023-02-11T10:48:03.319Z,29.60
2023-02-11T10:50:34.999Z,32.50
2023-02-11T10:53:20.506Z,32.92
2023-02-11T10:55:54.651Z,30.42
2023-02-11T10:58:43.248Z,33.33
2023-02-11T11:01:23.902Z,32.30
2023-02-11T11:03:52.946Z,33.58
2023-02-11T11:06:32.128Z,33.47
2023-02-11T11:08:59.189Z,33.03
2023-02-11T11:11:26.941Z,29.67
2023-02-11T11:13:53.715Z,33.15
2023-02-11T11:16:28.276Z,36.03
2023-02-11T11:19:07.398Z,32.85
2023-02-11T11:21:34.417Z,34.28
2023-02-11T11:24:03.701Z,31.40
2023-02-11T11:26:44.963Z,30.15
2023-02-11T11:29:36.830Z,29.00
2023-02-11T11:32:23.858Z,31.33
2023-02-11T11:34:55.624Z,31.77
2023-02-11T11:37:35.506Z,31.30
2023-02-11T11:40:09.721Z,30.13
2023-02-11T11:42:39.127Z,26.98
2023-02-11T11:45:22.898Z,31.33
2023-02-11T11:48:06.632Z,30.15
2023-02-11T11:50:36.244Z,32.50
2023-02-11T11:53:31.187Z,32.17
2023-02-11T11:56:09.187Z,32.70
2023-02-11T11:58:36.045Z,28.73
2023-02-11T12:01:17.935Z,30.75
2023-02-11T12:03:50.361Z,34.10
2023-02-11T12:06:19.922Z,33.35
2023-02-11T12:09:03.721Z,32.67
2023-02-11T12:11:45.575Z,29.70
2023-02-11T12:14:42.897Z,30.70
2023-02-11T12:17:28.314Z,30.52
2023-02-11T12:20:18.105Z,32.13
2023-02-11T12:22:53.933Z,30.17
2023-02-11T12:25:46.548Z,30.85
2023-02-11T12:28:22.422Z,29.90
2023-02-11T12:31:12.134Z,32.58
2023-02-11T12:33:58.048Z,29.85
2023-02-11T12:37:07.730Z,32.50
2023-02-11T12:39:50.483Z,32.83
2023-02-11T12:42:51.890Z,29.05
2023-02-11T12:45:33.796Z,30.00
2023-02-11T12:48:03.367Z,30.90
2023-02-11T12:50:53.576Z,29.92
2023-02-11T12:53:32.065Z,30.65
2023-02-11T12:56:05.559Z,29.60
2023-02-11T12:58:44.443Z,28.50
2023-02-11T13:01:30.702Z,29.00
2023-02-11T13:04:30.827Z,28.98
2023-02-11T13:07:15.934Z,28.45
2023-02-11T13:09:53.198Z,30.33
2023-02-11T13:12:38.840Z,31.83
2023-02-11T13:15:10.309Z,31.75
2023-02-11T13:17:47.022Z,30.40
2023-02-11T13:20:34.754Z,30.20
2023-02-11T13:23:17.774Z,30.88
2023-02-11T13:26:16.731Z,29.60
2023-02-11T13:29:02.459Z,29.02
2023-02-11T13:31:30.243Z,29.92
2023-02-11T13:33:57.287Z,32.25
2023-02-11T13:36:33.013Z,32.70
2023-02-11T13:39:19.383Z,31.27
2023-02-11T13:41:52.170Z,31.65
2023-02-11T13:44:23.835Z,30.25
2023-02-11T13:47:05.318Z,29.25
2023-02-11T13:49:37.018Z,31.92
2023-02-11T13:52:06.929Z,30.67
2023-02-11T13:54:38.264Z,31.67
2023-02-11T13:57:20.317Z,32.28
2023-02-11T13:59:49.053Z,31.57
2023-02-11T14:02:51.154Z,30.70
2023-02-11T14:05:45.063Z,31.33
2023-02-11T14:08:30.364Z,31.77
2023-02-11T14:11:01.679Z,31.02
2023-02-11T14:13:50.071Z,32.42
2023-02-11T14:16:35.590Z,35.20
2023-02-11T14:19:06.239Z,33.80
2023-02-11T14:21:42.275Z,32.60
2023-02-11T14:24:12.997Z,30.58
2023-02-11T14:26:49.018Z,29.88
2023-02-11T14:29:56.411Z,28.70
2023-02-11T14:32:49.077Z,29.20
2023-02-11T14:35:34.036Z,26.17
2023-02-11T14:38:01.905Z,28.90
2023-02-11T14:40:40.255Z,27.85
2023-02-11T14:43:15.036Z,26.60
2023-02-11T14:45:45.330Z,31.33
2023-02-11T14:48:20.478Z,28.63
2023-02-11T14:50:54.031Z,28.25
2023-02-11T14:53:23.879Z,29.42
2023-02-11T14:55:52.625Z,26.27
2023-02-11T14:58:28.566Z,24.17
2023-02-11T15:01:02.219Z,26.20
2023-02-11T15:03:43.360Z,25.17
2023-02-11T15:06:33.825Z,26.58
2023-02-11T15:09:17.006Z,27.83
2023-02-11T15:11:47.746Z,26.95
2023-02-11T15:14:36.399Z,30.13
2023-02-11T15:17:07.730Z,31.05
2023-02-11T15:19:38.389Z,33.50
2023-02-11T15:22:21.930Z,33.15
2023-02-11T15:25:10.293Z,30.92
2023-02-11T15:27:42.406Z,34.45
2023-02-11T15:30:21.448Z,34.03
2023-02-11T15:32:58.082Z,33.45
2023-02-11T15:35:28.674Z,35.05
2023-02-11T15:37:57.469Z,33.22
2023-02-11T15:40:37.403Z,33.50
2023-02-11T15:43:09.079Z,35.28
2023-02-11T15:45:38.816Z,35.75
2023-02-11T15:48:10.778Z,35.45
2023-02-11T15:50:40.689Z,35.90
2023-02-11T15:53:22.745Z,34.63
2023-02-11T15:55:51.867Z,36.10
2023-02-11T15:58:20.165Z,36.95
2023-02-11T16:00:50.389Z,38.47
2023-02-11T16:03:25.285Z,47.63
2023-02-11T16:05:52.215Z,37.33
2023-02-11T16:08:24.447Z,36.00
2023-02-11T16:10:58.428Z,37.88
2023-02-11T16:13:28.308Z,37.08
2023-02-11T16:16:03.993Z,36.33
2023-02-11T16:18:38.802Z,38.38
2023-02-11T16:21:14.274Z,34.53
2023-02-11T16:23:44.726Z,35.00
2023-02-11T16:26:34.437Z,35.83
2023-02-11T16:29:07.779Z,35.72
2023-02-11T16:31:41.015Z,34.72
2023-02-11T16:34:16.880Z,36.88
2023-02-11T16:36:47.775Z,36.00
2023-02-11T16:39:16.795Z,37.10
2023-02-11T16:41:46.510Z,36.22
2023-02-11T16:44:13.577Z,37.60
2023-02-11T16:46:40.597Z,38.80
2023-02-11T16:49:17.230Z,37.58
2023-02-11T16:51:52.561Z,39.72
2023-02-11T16:54:22.893Z,38.22
2023-02-11T16:56:49.749Z,38.65
2023-02-11T16:59:16.617Z,38.80
2023-02-11T17:01:45.044Z,37.88
2023-02-11T17:04:20.117Z,36.75
2023-02-11T17:06:48.147Z,36.67
2023-02-11T17:09:23.635Z,35.65
2023-02-11T17:50:37.022Z,33.15
2023-02-11T17:53:03.895Z,33.25
2023-02-11T17:55:33.908Z,36.17
2023-02-11T17:58:01.137Z,37.95
2023-02-11T18:00:30.992Z,32.88
2023-02-11T18:03:02.749Z,34.00
2023-02-11T18:05:37.249Z,37.20
2023-02-11T18:08:08.538Z,37.28
2023-02-11T18:10:35.340Z,37.72
2023-02-11T18:13:03.441Z,38.83
2023-02-11T18:15:30.232Z,38.17
2023-02-11T18:17:57.080Z,38.15
2023-02-11T18:20:23.929Z,38.30
2023-02-11T18:22:50.851Z,38.20
2023-02-11T18:25:18.779Z,40.35
2023-02-11T18:27:46.347Z,39.92
2023-02-11T18:30:20.754Z,39.03
2023-02-11T18:32:47.614Z,38.50
2023-02-11T18:35:15.902Z,39.00
2023-02-11T18:37:43.310Z,38.72
2023-02-11T18:40:11.708Z,38.10
2023-02-11T18:42:39.279Z,36.63
2023-02-11T18:45:09.576Z,39.00
2023-02-11T18:47:55.077Z,39.25
2023-02-11T18:50:22.139Z,39.35
2023-02-11T18:52:49.698Z,39.58
2023-02-11T18:55:16.628Z,40.85
2023-02-11T18:57:43.515Z,40.75
2023-02-11T19:00:11.177Z,40.00
2023-02-11T19:02:38.143Z,39.03
2023-02-11T19:05:06.610Z,41.25
2023-02-11T19:07:33.480Z,40.03
2023-02-11T19:10:00.383Z,38.85
2023-02-11T19:12:27.216Z,42.20
2023-02-11T19:14:54.114Z,39.08
2023-02-11T19:17:21.087Z,41.67
2023-02-11T19:19:47.901Z,42.88
2023-02-11T19:22:14.693Z,43.50
2023-02-11T19:24:44.789Z,39.88
2023-02-11T19:27:11.890Z,40.85
2023-02-11T19:29:39.059Z,38.08
2023-02-11T19:32:09.718Z,39.33
2023-02-11T19:34:41.288Z,42.03
2023-02-11T19:37:10.812Z,41.25
2023-02-11T19:39:37.753Z,39.67
2023-02-11T19:42:04.841Z,40.20
2023-02-11T19:44:32.519Z,41.03
2023-02-11T19:46:59.994Z,39.63
2023-02-11T19:49:26.857Z,39.80
2023-02-11T19:51:55.420Z,41.00
2023-02-11T19:54:23.190Z,40.50
2023-02-11T19:56:50.265Z,37.90
2023-02-11T19:59:17.166Z,42.90
2023-02-11T20:01:47.514Z,43.22
2023-02-11T20:04:18.066Z,41.50
2023-02-11T20:06:45.005Z,40.63
2023-02-11T20:09:14.311Z,40.28
2023-02-11T20:11:41.636Z,42.05
2023-02-11T20:14:10.498Z,39.65
2023-02-11T20:16:48.249Z,42.17
2023-02-11T20:19:21.460Z,41.38
2023-02-11T20:24:17.434Z,41.92
2023-02-11T20:26:45.256Z,40.38
2023-02-11T20:29:13.987Z,38.00
2023-02-11T20:31:41.281Z,42.33
2023-02-11T20:34:08.217Z,41.33
2023-02-11T20:36:35.729Z,41.10
2023-02-11T20:39:05.003Z,43.97
2023-02-11T20:41:36.480Z,41.85
2023-02-11T20:44:06.792Z,42.75
2023-02-11T20:46:34.627Z,43.70
2023-02-11T20:49:02.022Z,40.28
2023-02-11T20:51:31.425Z,40.17
2023-02-11T20:53:58.740Z,39.75
2023-02-11T20:56:28.830Z,40.05
2023-02-11T20:58:58.150Z,41.33
2023-02-11T21:01:30.923Z,41.65
2023-02-11T21:06:45.486Z,40.47
2023-02-11T21:09:15.165Z,40.17
2023-02-11T21:11:43.020Z,42.35
2023-02-11T21:14:11.112Z,43.55
2023-02-11T21:16:38.770Z,43.50
2023-02-11T21:19:06.254Z,43.80
2023-02-11T21:21:36.033Z,43.90
2023-02-11T21:24:05.360Z,42.75
2023-02-11T21:26:32.755Z,43.03
2023-02-11T21:28:59.524Z,42.28
2023-02-11T21:31:28.996Z,40.55
2023-02-11T21:33:56.704Z,40.47
2023-02-11T21:36:24.147Z,44.28
2023-02-11T21:38:51.255Z,44.13
2023-02-11T21:41:22.380Z,41.10
2023-02-11T21:43:49.874Z,41.03
2023-02-11T21:46:17.865Z,41.03
2023-02-11T21:48:44.790Z,42.58
2023-02-11T21:51:15.175Z,41.67
2023-02-11T21:53:42.080Z,42.63
2023-02-11T21:56:13.034Z,39.30
2023-02-11T21:58:39.855Z,42.15
2023-02-11T22:01:20.192Z,42.80
2023-02-11T22:03:47.327Z,44.78
2023-02-11T22:06:27.449Z,46.05
2023-02-11T22:08:54.935Z,45.60
2023-02-11T22:11:22.139Z,45.72
2023-02-11T22:13:53.838Z,45.28
2023-02-11T22:16:21.044Z,42.47
2023-02-11T22:18:48.091Z,46.55
2023-02-11T22:21:17.806Z,45.70
2023-02-11T22:23:48.342Z,45.42
2023-02-11T22:26:18.470Z,53.67
2023-02-11T22:28:48.894Z,57.17
2023-02-11T22:31:23.104Z,55.58
2023-02-11T22:33:50.179Z,53.83
2023-02-11T22:36:28.931Z,50.95
2023-02-11T22:38:56.590Z,51.90
2023-02-11T22:41:24.732Z,53.28
2023-02-11T22:43:51.835Z,48.53
2023-02-11T22:46:19.595Z,50.20
2023-02-11T22:48:47.197Z,53.25
2023-02-11T22:51:17.599Z,52.70
2023-02-11T22:53:44.573Z,50.28
2023-02-11T22:56:15.587Z,51.78
2023-02-11T22:58:43.088Z,50.33
2023-02-11T23:01:10.395Z,49.40
2023-02-11T23:03:37.313Z,48.30
2023-02-11T23:06:04.634Z,48.42
2023-02-11T23:08:32.520Z,48.13
2023-02-11T23:11:29.435Z,49.33
2023-02-11T23:13:58.405Z,47.30
2023-02-11T23:16:28.066Z,47.83
2023-02-11T23:18:55.154Z,46.05
2023-02-11T23:21:25.706Z,48.92
2023-02-11T23:23:58.489Z,48.22
2023-02-11T23:26:25.802Z,46.53
2023-02-11T23:28:52.772Z,47.20
2023-02-11T23:31:26.546Z,46.47
2023-02-11T23:33:54.007Z,44.67
2023-02-11T23:36:22.386Z,44.65
2023-02-11T23:38:49.573Z,44.20
2023-02-11T23:41:17.132Z,46.50
